Forest City, North Carolina
Current Conditions -  °F | °C
As of 4:35 PM on Saturday 25 Oct 2014 (Local Time) from KFQD Reporting Station
Clear Clear  
Wind Chill: 73°   Ceiling: Unl
Heat Index: 73°   Visibility: 10mi
Dew Point: 38°   Wind: 8mph
Humidity: 27%   Direction: 210°SSW
Pressure: 29.96"   Gusts: NA
Location:  35.33°N, 81.86°W
Report Text: KFQD 252035Z AUTO 21007KT 10SM CLR 23/03 A2996 RMK AO2 T02300031
Loading
Personal Weather Stations






























Interactive Weather Map
Tropical Storm Tracking
New forecast layout! Learn more

10-Day Weather Forecast

Advertisements
Track Severe Weather on mobile